createdAt,value
2022-12-28T00:00:04.229Z,83.25
2022-12-28T00:00:14.390Z,83.25
2022-12-28T00:00:24.381Z,83.25
2022-12-28T00:00:34.464Z,83.25
2022-12-28T00:00:44.415Z,83.25
2022-12-28T00:00:54.535Z,83.25
2022-12-28T00:01:04.602Z,83.25
2022-12-28T00:01:14.662Z,83.25
2022-12-28T00:01:24.716Z,83.25
2022-12-28T00:01:34.838Z,83.15
2022-12-28T00:01:44.999Z,83.15
2022-12-28T00:01:54.942Z,83.15
2022-12-28T00:02:05.040Z,83.15
2022-12-28T00:02:15.060Z,83.15
2022-12-28T00:02:25.177Z,83.15
2022-12-28T00:02:35.316Z,83.05
2022-12-28T00:02:45.396Z,83.05
2022-12-28T00:02:55.479Z,83.05
2022-12-28T00:03:05.578Z,83.05
2022-12-28T00:03:15.613Z,83.05
2022-12-28T00:03:25.703Z,83.05
2022-12-28T00:03:35.768Z,83.05
2022-12-28T00:03:45.851Z,83.05
2022-12-28T00:03:55.898Z,83.05
2022-12-28T00:04:05.979Z,83.05
2022-12-28T00:04:16.047Z,83.05
2022-12-28T00:04:26.087Z,83.05
2022-12-28T00:04:36.149Z,83.05
2022-12-28T00:04:46.238Z,83.05
2022-12-28T00:04:56.287Z,83.05
2022-12-28T00:05:06.467Z,82.95
2022-12-28T00:05:16.337Z,82.84
2022-12-28T00:05:26.406Z,82.74
2022-12-28T00:05:36.471Z,82.74
2022-12-28T00:05:46.569Z,82.74
2022-12-28T00:05:56.679Z,82.74
2022-12-28T00:06:06.760Z,82.74
2022-12-28T00:06:16.849Z,82.64
2022-12-28T00:06:26.911Z,82.64
2022-12-28T00:06:36.966Z,82.64
2022-12-28T00:06:47.063Z,82.64
2022-12-28T00:06:57.165Z,82.74
2022-12-28T00:07:07.239Z,82.64
2022-12-28T00:07:17.300Z,82.74
2022-12-28T00:07:27.361Z,82.74
2022-12-28T00:07:37.417Z,82.74
2022-12-28T00:07:47.410Z,82.74
2022-12-28T00:07:57.480Z,82.74
2022-12-28T00:08:07.548Z,82.84
2022-12-28T00:08:17.615Z,82.84
2022-12-28T00:08:27.686Z,82.84
2022-12-28T00:08:37.775Z,82.84
2022-12-28T00:08:47.885Z,82.95
2022-12-28T00:08:57.944Z,82.95
2022-12-28T00:09:08.027Z,82.95
2022-12-28T00:09:18.119Z,82.95
2022-12-28T00:09:28.252Z,82.95
2022-12-28T00:09:38.328Z,82.95
2022-12-28T00:09:48.415Z,82.95
2022-12-28T00:09:58.545Z,82.95
2022-12-28T00:10:08.627Z,82.95
2022-12-28T00:10:18.687Z,82.95
2022-12-28T00:11:07.502Z,83.05
2022-12-28T00:11:07.884Z,83.05
2022-12-28T00:11:08.123Z,83.05
2022-12-28T00:11:08.870Z,82.95
2022-12-28T00:11:20.567Z,83.05
2022-12-28T00:11:30.593Z,83.05
2022-12-28T00:11:35.374Z,83.05
2022-12-28T00:11:45.437Z,83.05
2022-12-28T00:11:55.551Z,83.05
2022-12-28T00:12:05.629Z,83.05
2022-12-28T00:12:15.657Z,83.05
2022-12-28T00:12:25.726Z,83.05
2022-12-28T00:12:35.724Z,83.05
2022-12-28T00:12:45.824Z,83.05
2022-12-28T00:12:55.897Z,83.05
2022-12-28T00:13:05.965Z,83.05
2022-12-28T00:13:16.038Z,83.05
2022-12-28T00:13:26.080Z,83.05
2022-12-28T00:13:36.227Z,83.05
2022-12-28T00:13:46.287Z,83.05
2022-12-28T00:13:56.355Z,83.05
2022-12-28T00:14:06.490Z,83.05
2022-12-28T00:14:16.417Z,83.05
2022-12-28T00:14:26.389Z,83.05
2022-12-28T00:14:36.457Z,83.05
2022-12-28T00:14:46.515Z,83.05
2022-12-28T00:14:56.595Z,83.05
2022-12-28T00:15:06.648Z,83.05
2022-12-28T00:15:16.705Z,82.95
2022-12-28T00:15:26.771Z,82.95
2022-12-28T00:15:36.855Z,82.95
2022-12-28T00:15:46.905Z,82.95
2022-12-28T00:15:57.056Z,82.95
2022-12-28T00:16:07.202Z,82.95
2022-12-28T00:16:17.147Z,82.95
2022-12-28T00:16:27.234Z,82.95
2022-12-28T00:16:37.360Z,82.95
2022-12-28T00:16:47.488Z,82.95
2022-12-28T00:16:57.577Z,82.84
2022-12-28T00:17:07.683Z,82.84
2022-12-28T00:17:17.749Z,82.84
2022-12-28T00:17:27.792Z,82.84
2022-12-28T00:17:37.897Z,82.84
2022-12-28T00:17:47.963Z,82.74
2022-12-28T00:17:58.015Z,82.74
2022-12-28T00:18:08.084Z,82.74
2022-12-28T00:18:18.159Z,82.74
2022-12-28T00:18:28.208Z,82.74
2022-12-28T00:18:38.284Z,82.74
2022-12-28T00:18:48.394Z,82.74
2022-12-28T00:18:58.511Z,82.74
2022-12-28T00:19:08.614Z,82.74
2022-12-28T00:19:18.710Z,82.74
2022-12-28T00:19:28.736Z,82.74
2022-12-28T00:19:38.818Z,82.74
2022-12-28T00:19:48.933Z,82.74
2022-12-28T00:19:59.004Z,82.74
2022-12-28T00:20:09.137Z,82.74
2022-12-28T00:20:19.236Z,82.74
2022-12-28T00:20:29.325Z,82.74
2022-12-28T00:20:39.397Z,82.74
2022-12-28T00:20:49.471Z,82.74
2022-12-28T00:20:59.547Z,82.64
2022-12-28T00:21:09.615Z,82.64
2022-12-28T00:21:19.682Z,82.64
2022-12-28T00:21:29.754Z,82.64
2022-12-28T00:21:39.858Z,82.64
2022-12-28T00:21:49.934Z,82.64
2022-12-28T00:22:00.116Z,82.64
2022-12-28T00:22:10.207Z,82.64
2022-12-28T00:22:20.283Z,82.64
2022-12-28T00:22:30.363Z,82.53
2022-12-28T00:22:40.433Z,82.53
2022-12-28T00:22:50.502Z,82.53
2022-12-28T00:23:00.557Z,82.43
2022-12-28T00:23:10.739Z,82.43
2022-12-28T00:23:20.643Z,82.43
2022-12-28T00:23:30.695Z,82.43
2022-12-28T00:23:40.772Z,82.43
2022-12-28T00:23:50.841Z,82.43
2022-12-28T00:24:00.898Z,82.43
2022-12-28T00:24:10.954Z,82.43
2022-12-28T00:24:21.014Z,82.43
2022-12-28T00:24:31.094Z,82.43
2022-12-28T00:24:41.143Z,82.43
2022-12-28T00:24:51.204Z,82.43
2022-12-28T00:25:01.274Z,82.43
2022-12-28T00:25:11.356Z,82.43
2022-12-28T00:25:21.406Z,82.43
2022-12-28T00:25:31.452Z,82.43
2022-12-28T00:25:41.506Z,82.32
2022-12-28T00:25:51.568Z,82.32
2022-12-28T00:26:01.626Z,82.32
2022-12-28T00:26:11.698Z,82.32
2022-12-28T00:26:21.754Z,82.32
2022-12-28T00:26:31.817Z,82.32
2022-12-28T00:26:41.873Z,82.22
2022-12-28T00:26:51.953Z,82.22
2022-12-28T00:27:02.013Z,82.22
2022-12-28T00:27:12.070Z,82.22
2022-12-28T00:27:22.135Z,82.22
2022-12-28T00:27:32.224Z,82.22
2022-12-28T00:27:42.267Z,82.22
2022-12-28T00:27:52.332Z,82.22
2022-12-28T00:28:02.403Z,82.22
2022-12-28T00:28:12.534Z,82.22
2022-12-28T00:28:22.626Z,82.22
2022-12-28T00:28:32.701Z,82.22
2022-12-28T00:28:42.754Z,82.22
2022-12-28T00:28:55.552Z,82.22
2022-12-28T00:29:05.543Z,82.22
2022-12-28T00:29:13.744Z,82.22
2022-12-28T00:29:23.807Z,82.22
2022-12-28T00:29:33.855Z,82.22
2022-12-28T00:29:43.913Z,82.12
2022-12-28T00:29:53.992Z,82.12
2022-12-28T00:30:04.057Z,82.12
2022-12-28T00:30:14.124Z,82.12
2022-12-28T00:30:24.300Z,82.12
2022-12-28T00:30:34.360Z,82.12
2022-12-28T00:30:44.464Z,82.12
2022-12-28T00:30:54.513Z,82.01
2022-12-28T00:31:04.593Z,82.01
2022-12-28T00:31:14.749Z,82.01
2022-12-28T00:31:24.839Z,82.01
2022-12-28T00:31:34.978Z,82.01
2022-12-28T00:31:45.002Z,82.01
2022-12-28T00:31:55.118Z,82.12
2022-12-28T00:32:05.216Z,82.12
2022-12-28T00:32:15.273Z,82.12
2022-12-28T00:32:25.339Z,82.12
2022-12-28T00:32:35.383Z,82.12
2022-12-28T00:32:45.439Z,82.12
2022-12-28T00:32:55.480Z,82.12
2022-12-28T00:33:05.535Z,82.12
2022-12-28T00:33:15.581Z,82.12
2022-12-28T00:33:25.687Z,82.12
2022-12-28T00:33:35.784Z,82.12
2022-12-28T00:33:45.863Z,82.12
2022-12-28T00:33:55.912Z,82.12
2022-12-28T00:34:05.996Z,82.22
2022-12-28T00:34:16.086Z,82.22
2022-12-28T00:34:26.147Z,82.22
2022-12-28T00:34:36.191Z,82.22
2022-12-28T00:34:46.243Z,82.22
2022-12-28T00:34:56.297Z,82.22
2022-12-28T00:35:06.413Z,82.12
2022-12-28T00:35:16.480Z,82.12
2022-12-28T00:35:26.535Z,82.12
2022-12-28T00:35:36.590Z,82.12
2022-12-28T00:35:46.661Z,82.12
2022-12-28T00:35:56.711Z,82.12
2022-12-28T00:36:06.846Z,82.12
2022-12-28T00:36:16.910Z,82.12
2022-12-28T00:37:10.103Z,82.01
2022-12-28T00:37:10.104Z,82.01
2022-12-28T00:37:10.533Z,82.01
2022-12-28T00:37:11.477Z,82.01
2022-12-28T00:37:13.122Z,82.01
2022-12-28T00:37:20.912Z,82.01
2022-12-28T00:37:31.003Z,82.01
2022-12-28T00:37:41.073Z,82.01
2022-12-28T00:37:51.183Z,82.01
2022-12-28T00:38:01.308Z,82.01
2022-12-28T00:38:11.414Z,82.01
2022-12-28T00:38:21.562Z,82.12
2022-12-28T00:38:31.699Z,82.12
2022-12-28T00:38:41.838Z,82.12
2022-12-28T00:38:51.951Z,82.12
2022-12-28T00:39:01.920Z,82.12
2022-12-28T00:39:12.039Z,82.12
2022-12-28T00:39:22.145Z,82.12
2022-12-28T00:39:32.259Z,82.01
2022-12-28T00:39:42.401Z,82.12
2022-12-28T00:39:52.463Z,82.01
2022-12-28T00:40:02.557Z,82.12
2022-12-28T00:40:12.549Z,82.12
2022-12-28T00:40:24.282Z,82.12
2022-12-28T00:40:32.782Z,82.12
2022-12-28T00:40:42.883Z,82.01
2022-12-28T00:40:53.021Z,82.01
2022-12-28T00:41:03.110Z,82.01
2022-12-28T00:41:13.215Z,81.91
2022-12-28T00:41:23.279Z,81.91
2022-12-28T00:41:33.353Z,81.91
2022-12-28T00:41:43.422Z,81.91
2022-12-28T00:41:53.491Z,81.91
2022-12-28T00:42:03.540Z,82.01
2022-12-28T00:42:13.598Z,82.01
2022-12-28T00:42:23.678Z,82.01
2022-12-28T00:42:33.741Z,82.01
2022-12-28T00:42:43.796Z,82.01
2022-12-28T00:42:53.875Z,81.91
2022-12-28T00:43:03.969Z,81.91
2022-12-28T00:43:14.106Z,81.91
2022-12-28T00:43:24.240Z,81.91
2022-12-28T00:43:34.314Z,81.91
2022-12-28T00:43:44.392Z,81.91
2022-12-28T00:43:54.515Z,81.91
2022-12-28T00:44:04.628Z,81.91
2022-12-28T00:44:14.697Z,81.91
2022-12-28T00:44:24.777Z,81.91
2022-12-28T00:44:34.831Z,81.91
2022-12-28T00:44:44.916Z,81.91
2022-12-28T00:44:54.961Z,81.81
2022-12-28T00:45:05.039Z,81.81
2022-12-28T00:45:15.124Z,81.81
2022-12-28T00:45:25.242Z,81.81
2022-12-28T00:45:35.231Z,81.81
2022-12-28T00:45:45.338Z,81.81
2022-12-28T00:45:55.449Z,81.81
2022-12-28T00:46:05.578Z,81.91
2022-12-28T00:46:15.682Z,81.91
2022-12-28T00:46:25.629Z,81.91
2022-12-28T00:46:35.720Z,81.91
2022-12-28T00:46:45.783Z,81.91
2022-12-28T00:46:55.838Z,81.87
2022-12-28T00:47:05.902Z,81.91
2022-12-28T00:47:15.969Z,82.01
2022-12-28T00:47:26.059Z,82.01
2022-12-28T00:47:36.136Z,82.01
2022-12-28T00:47:46.205Z,81.98
2022-12-28T00:47:56.270Z,81.98
2022-12-28T00:48:06.341Z,81.98
2022-12-28T00:48:16.409Z,82.01
2022-12-28T00:48:26.471Z,81.98
2022-12-28T00:48:36.541Z,81.87
2022-12-28T00:48:46.539Z,81.87
2022-12-28T00:48:56.618Z,81.91
2022-12-28T00:49:06.670Z,81.91
2022-12-28T00:49:16.761Z,81.87
2022-12-28T00:49:26.820Z,81.87
2022-12-28T00:49:36.886Z,81.87
2022-12-28T00:49:46.951Z,81.87
2022-12-28T00:49:57.030Z,81.87
2022-12-28T00:50:07.100Z,81.87
2022-12-28T00:50:17.158Z,81.87
2022-12-28T00:50:27.171Z,81.87
2022-12-28T00:50:37.209Z,81.87
2022-12-28T00:50:47.286Z,81.87
2022-12-28T00:50:57.369Z,81.87
2022-12-28T00:51:07.417Z,81.87
2022-12-28T00:51:17.476Z,81.87
2022-12-28T00:51:27.518Z,81.87
2022-12-28T00:51:37.575Z,81.87
2022-12-28T00:51:47.621Z,81.87
2022-12-28T00:51:57.670Z,81.87
2022-12-28T00:52:07.729Z,81.87
2022-12-28T00:52:17.775Z,81.87
2022-12-28T00:52:27.840Z,81.87
2022-12-28T00:52:37.893Z,81.87
2022-12-28T00:52:47.930Z,81.87
2022-12-28T00:52:57.964Z,81.87
2022-12-28T00:53:08.025Z,81.87
2022-12-28T00:53:18.077Z,81.87
2022-12-28T00:53:28.120Z,81.77
2022-12-28T00:53:38.164Z,81.77
2022-12-28T00:53:48.326Z,81.77
2022-12-28T00:53:58.371Z,81.77
2022-12-28T00:54:08.428Z,81.77
2022-12-28T00:54:18.489Z,81.77
2022-12-28T00:54:28.550Z,81.77
2022-12-28T00:54:38.594Z,81.77
2022-12-28T00:54:48.641Z,81.77
2022-12-28T00:54:58.678Z,81.77
2022-12-28T00:55:08.723Z,81.77
2022-12-28T00:55:18.778Z,81.77
2022-12-28T00:55:28.899Z,81.77
2022-12-28T00:55:38.937Z,81.67
2022-12-28T00:55:48.974Z,81.67
2022-12-28T00:55:59.009Z,81.67
2022-12-28T00:56:09.058Z,81.56
2022-12-28T00:56:19.131Z,81.56
2022-12-28T00:56:29.169Z,81.56
2022-12-28T00:56:39.200Z,81.56
2022-12-28T00:56:49.234Z,81.56
2022-12-28T00:56:59.302Z,81.56
2022-12-28T00:57:09.342Z,81.56
2022-12-28T00:57:19.393Z,81.56
2022-12-28T00:57:29.428Z,81.56
2022-12-28T00:57:39.505Z,81.56
2022-12-28T00:57:49.530Z,81.67
2022-12-28T00:57:59.568Z,81.67
2022-12-28T00:58:09.629Z,81.56
2022-12-28T00:58:19.659Z,81.56
2022-12-28T00:58:29.689Z,81.56
2022-12-28T00:58:39.768Z,81.56
2022-12-28T00:58:49.823Z,81.56
2022-12-28T00:58:59.860Z,81.56
2022-12-28T00:59:09.951Z,81.56
2022-12-28T00:59:20.001Z,81.56
2022-12-28T00:59:30.039Z,81.56
2022-12-28T00:59:40.118Z,81.56
2022-12-28T00:59:50.169Z,81.56
2022-12-28T01:00:00.226Z,81.56
2022-12-28T01:00:10.277Z,81.56
2022-12-28T01:00:20.409Z,81.56
2022-12-28T01:00:30.448Z,81.56
2022-12-28T01:00:40.520Z,81.56
2022-12-28T01:00:50.605Z,81.56
2022-12-28T01:01:00.835Z,81.56
2022-12-28T01:01:10.788Z,81.56
2022-12-28T01:01:21.011Z,81.56
2022-12-28T01:01:31.004Z,81.56
2022-12-28T01:01:41.006Z,81.56
2022-12-28T01:01:51.053Z,81.56
2022-12-28T01:02:01.066Z,81.56
2022-12-28T01:02:11.205Z,81.56
2022-12-28T01:02:21.212Z,81.56
2022-12-28T01:02:31.256Z,81.46
2022-12-28T01:02:41.191Z,81.46
2022-12-28T01:02:51.345Z,81.35
2022-12-28T01:03:01.342Z,81.35
2022-12-28T01:03:11.439Z,81.35
2022-12-28T01:03:21.502Z,81.35
2022-12-28T01:03:31.544Z,81.35
2022-12-28T01:03:41.583Z,81.35
2022-12-28T01:03:51.668Z,81.35
2022-12-28T01:04:01.730Z,81.35
2022-12-28T01:04:11.829Z,81.35
2022-12-28T01:04:21.884Z,81.35
2022-12-28T01:04:31.921Z,81.35
2022-12-28T01:04:41.985Z,81.35
2022-12-28T01:04:52.028Z,81.35
2022-12-28T01:05:02.163Z,81.35
2022-12-28T01:05:12.217Z,81.35
2022-12-28T01:05:22.262Z,81.35
2022-12-28T01:05:32.310Z,81.35
2022-12-28T01:05:42.418Z,81.35
2022-12-28T01:05:52.477Z,81.35
2022-12-28T01:06:02.517Z,81.35
2022-12-28T01:06:12.559Z,81.35
2022-12-28T01:06:22.603Z,81.35
2022-12-28T01:06:32.642Z,81.35
2022-12-28T01:06:42.688Z,81.46
2022-12-28T01:06:52.752Z,81.46
2022-12-28T01:07:02.804Z,81.35
2022-12-28T01:07:12.839Z,81.35
2022-12-28T01:07:22.869Z,81.35
2022-12-28T01:07:32.927Z,81.35
2022-12-28T01:07:42.967Z,81.35
2022-12-28T01:07:53.045Z,81.35
2022-12-28T01:08:03.134Z,81.35
2022-12-28T01:08:13.184Z,81.35
2022-12-28T01:08:23.207Z,81.35
2022-12-28T01:08:33.254Z,81.35
2022-12-28T01:08:43.308Z,81.35
2022-12-28T01:08:53.376Z,81.46
2022-12-28T01:09:03.418Z,81.46
2022-12-28T01:09:13.465Z,81.46
2022-12-28T01:09:23.506Z,81.46
2022-12-28T01:09:33.583Z,81.46
2022-12-28T01:09:43.621Z,81.46
2022-12-28T01:09:53.674Z,81.46
2022-12-28T01:10:03.709Z,81.46
2022-12-28T01:10:13.758Z,81.46
2022-12-28T01:10:23.819Z,81.46
2022-12-28T01:10:33.867Z,81.46
2022-12-28T01:10:43.913Z,81.46
2022-12-28T01:10:53.947Z,81.46
2022-12-28T01:11:03.987Z,81.56
2022-12-28T01:11:14.026Z,81.56
2022-12-28T01:11:24.086Z,81.56
2022-12-28T01:11:34.124Z,81.56
2022-12-28T01:11:44.160Z,81.56
2022-12-28T01:11:54.214Z,81.56
2022-12-28T01:12:04.247Z,81.46
2022-12-28T01:12:14.278Z,81.46
2022-12-28T01:12:24.334Z,81.35
2022-12-28T01:12:38.054Z,81.25
2022-12-28T01:12:44.478Z,81.25
2022-12-28T01:12:54.526Z,81.25
2022-12-28T01:13:04.571Z,81.25
2022-12-28T01:13:14.606Z,81.25
2022-12-28T01:13:24.648Z,81.25
2022-12-28T01:13:34.686Z,81.25
2022-12-28T01:13:44.786Z,81.25
2022-12-28T01:13:54.840Z,81.25
2022-12-28T01:14:04.885Z,81.15
2022-12-28T01:14:14.945Z,81.15
2022-12-28T01:14:25.000Z,81.15
2022-12-28T01:14:35.037Z,81.25
2022-12-28T01:14:45.112Z,81.25
2022-12-28T01:14:55.154Z,81.25
2022-12-28T01:15:05.204Z,81.25
2022-12-28T01:15:15.285Z,81.25
2022-12-28T01:15:25.355Z,81.25
2022-12-28T01:15:35.412Z,81.25
2022-12-28T01:15:45.473Z,81.25
2022-12-28T01:15:55.595Z,81.25
2022-12-28T01:16:05.652Z,81.25
2022-12-28T01:16:15.760Z,81.25
2022-12-28T01:16:25.739Z,81.25
2022-12-28T01:16:35.846Z,81.25
2022-12-28T01:16:45.861Z,81.35
2022-12-28T01:16:55.992Z,81.35
2022-12-28T01:17:06.058Z,81.35
2022-12-28T01:17:16.137Z,81.35
2022-12-28T01:17:26.195Z,81.35
2022-12-28T01:17:36.268Z,81.25
2022-12-28T01:17:46.335Z,81.25
2022-12-28T01:17:56.466Z,81.25
2022-12-28T01:18:06.566Z,81.15
2022-12-28T01:18:16.616Z,81.15
2022-12-28T01:18:26.676Z,81.15
2022-12-28T01:18:36.745Z,81.15
2022-12-28T01:18:46.882Z,81.15
2022-12-28T01:18:56.962Z,81.15
2022-12-28T01:19:07.043Z,81.15
2022-12-28T01:19:17.130Z,81.15
2022-12-28T01:19:27.207Z,81.25
2022-12-28T01:19:37.274Z,81.25
2022-12-28T01:19:53.592Z,81.25
2022-12-28T01:19:58.296Z,81.25
2022-12-28T01:20:08.381Z,81.25
2022-12-28T01:20:18.454Z,81.25
2022-12-28T01:20:28.585Z,81.25
2022-12-28T01:20:38.676Z,81.25
2022-12-28T01:20:48.746Z,81.25
2022-12-28T01:20:58.847Z,81.25
2022-12-28T01:21:08.908Z,81.25
2022-12-28T01:21:18.997Z,81.25
2022-12-28T01:21:29.066Z,81.25
2022-12-28T01:21:39.132Z,81.25
2022-12-28T01:21:49.184Z,81.25
2022-12-28T01:21:59.254Z,81.35
2022-12-28T01:22:09.313Z,81.35
2022-12-28T01:22:19.377Z,81.35
2022-12-28T01:22:29.433Z,81.35
2022-12-28T01:22:39.495Z,81.35
2022-12-28T01:22:49.559Z,81.35
2022-12-28T01:22:59.614Z,81.35
2022-12-28T01:23:09.804Z,81.35
2022-12-28T01:23:19.717Z,81.35
2022-12-28T01:23:29.782Z,81.35
2022-12-28T01:23:39.863Z,81.35
2022-12-28T01:23:49.904Z,81.35
2022-12-28T01:24:00.075Z,81.35
2022-12-28T01:24:10.175Z,81.35
2022-12-28T01:24:20.242Z,81.35
2022-12-28T01:24:30.294Z,81.35
2022-12-28T01:24:40.364Z,81.35
2022-12-28T01:24:50.453Z,81.35
2022-12-28T01:25:00.538Z,81.35
2022-12-28T01:25:10.618Z,81.35
2022-12-28T01:25:20.697Z,81.35
2022-12-28T01:25:30.754Z,81.35
2022-12-28T01:25:40.824Z,81.25
2022-12-28T01:25:50.884Z,81.15
2022-12-28T01:26:00.956Z,81.15
2022-12-28T01:26:11.076Z,81.05
2022-12-28T01:26:21.156Z,81.05
2022-12-28T01:26:31.223Z,81.05
2022-12-28T01:26:41.288Z,81.05
2022-12-28T01:26:51.428Z,81.05
2022-12-28T01:27:01.529Z,81.05
2022-12-28T01:27:11.605Z,81.05
2022-12-28T01:27:21.724Z,81.05
2022-12-28T01:27:31.790Z,81.05
2022-12-28T01:27:41.850Z,81.05
2022-12-28T01:27:51.906Z,81.05
2022-12-28T01:28:01.955Z,81.05
2022-12-28T01:28:12.037Z,81.05
2022-12-28T01:28:22.103Z,81.15
2022-12-28T01:28:32.175Z,81.15
2022-12-28T01:28:42.234Z,81.15
2022-12-28T01:28:52.350Z,81.15
2022-12-28T01:29:02.456Z,81.15
2022-12-28T01:29:12.516Z,81.15
2022-12-28T01:29:22.591Z,81.15
2022-12-28T01:29:32.663Z,81.15
2022-12-28T01:29:42.703Z,81.15
2022-12-28T01:29:52.763Z,81.15
2022-12-28T01:30:02.825Z,81.05
2022-12-28T01:30:12.888Z,81.05
2022-12-28T01:30:22.943Z,81.05
2022-12-28T01:30:33.048Z,81.05
2022-12-28T01:30:44.003Z,81.05
2022-12-28T01:30:54.053Z,81.05
2022-12-28T01:31:04.114Z,81.05
2022-12-28T01:31:14.178Z,81.05
2022-12-28T01:31:24.327Z,81.05
2022-12-28T01:31:34.423Z,80.94
2022-12-28T01:31:44.498Z,80.94
2022-12-28T01:31:54.589Z,81.05
2022-12-28T01:32:04.683Z,81.05
2022-12-28T01:32:14.808Z,81.05
2022-12-28T01:32:24.893Z,81.05
2022-12-28T01:32:34.943Z,81.05
2022-12-28T01:32:45.018Z,81.05
2022-12-28T01:32:55.107Z,81.05
2022-12-28T01:33:05.085Z,81.05
2022-12-28T01:33:15.136Z,81.05
2022-12-28T01:33:25.202Z,81.05
2022-12-28T01:33:35.380Z,81.05
2022-12-28T01:33:45.280Z,81.15
2022-12-28T01:33:55.424Z,81.15
2022-12-28T01:34:05.380Z,81.05
2022-12-28T01:34:15.433Z,81.05
2022-12-28T01:34:25.493Z,80.94
2022-12-28T01:34:35.592Z,80.94
2022-12-28T01:34:45.644Z,80.94
2022-12-28T01:34:55.722Z,80.84
2022-12-28T01:35:05.782Z,80.84
2022-12-28T01:35:15.841Z,80.84
2022-12-28T01:35:25.913Z,80.84
2022-12-28T01:35:35.990Z,80.84
2022-12-28T01:35:46.096Z,80.84
2022-12-28T01:35:56.159Z,80.94
2022-12-28T01:36:06.223Z,80.94
2022-12-28T01:36:16.291Z,80.94
2022-12-28T01:36:26.381Z,80.94
2022-12-28T01:36:36.453Z,80.94
2022-12-28T01:36:46.513Z,80.94
2022-12-28T01:36:56.572Z,80.94
2022-12-28T01:37:06.658Z,80.94
2022-12-28T01:37:16.740Z,80.94
2022-12-28T01:37:26.790Z,80.94
2022-12-28T01:37:36.876Z,80.94
2022-12-28T01:37:46.919Z,80.94
2022-12-28T01:37:57.001Z,80.94
2022-12-28T01:38:07.052Z,80.94
2022-12-28T01:38:17.128Z,80.94
2022-12-28T01:38:27.186Z,80.94
2022-12-28T01:38:37.243Z,80.94
2022-12-28T01:38:47.293Z,81.05
2022-12-28T01:38:57.383Z,81.05
2022-12-28T01:39:07.469Z,81.05
2022-12-28T01:39:17.543Z,80.94
2022-12-28T01:39:27.611Z,81.05
2022-12-28T01:39:37.681Z,81.05
2022-12-28T01:39:47.769Z,81.05
2022-12-28T01:39:57.891Z,81.05
2022-12-28T01:40:08.047Z,81.05
2022-12-28T01:40:18.108Z,81.05
2022-12-28T01:40:28.160Z,81.05
2022-12-28T01:40:38.252Z,81.05
2022-12-28T01:40:48.319Z,81.05
2022-12-28T01:40:58.401Z,81.05
2022-12-28T01:41:08.467Z,81.05
2022-12-28T01:41:18.535Z,81.05
2022-12-28T01:41:28.620Z,81.05
2022-12-28T01:41:38.703Z,81.05
2022-12-28T01:41:48.767Z,81.05
2022-12-28T01:41:58.830Z,81.05
2022-12-28T01:42:08.902Z,81.05
2022-12-28T01:42:18.969Z,81.05
2022-12-28T01:42:29.037Z,81.05
2022-12-28T01:42:39.157Z,81.15
2022-12-28T01:42:49.219Z,81.15
2022-12-28T01:42:59.288Z,81.15
2022-12-28T01:43:09.340Z,81.15
2022-12-28T01:43:29.885Z,81.15
2022-12-28T01:43:30.375Z,81.15
2022-12-28T01:43:40.377Z,81.15
2022-12-28T01:43:50.432Z,81.15
2022-12-28T01:44:00.468Z,81.15
2022-12-28T01:44:10.548Z,81.15
2022-12-28T01:44:20.611Z,81.15
2022-12-28T01:44:30.672Z,81.15
2022-12-28T01:44:40.739Z,81.15
2022-12-28T01:44:50.799Z,81.15
2022-12-28T01:45:00.935Z,81.15
2022-12-28T01:45:10.989Z,81.15
2022-12-28T01:45:21.067Z,81.15
2022-12-28T01:45:31.195Z,81.05
2022-12-28T01:45:41.310Z,81.15
2022-12-28T01:45:51.420Z,81.05
2022-12-28T01:46:01.478Z,81.05
2022-12-28T01:46:11.577Z,81.05
2022-12-28T01:46:21.629Z,81.05
2022-12-28T01:46:31.710Z,81.05
2022-12-28T01:46:41.761Z,81.05
2022-12-28T01:46:51.834Z,81.05
2022-12-28T01:47:01.895Z,81.05
2022-12-28T01:47:11.960Z,81.05
2022-12-28T01:47:22.041Z,81.05
2022-12-28T01:47:32.092Z,81.05
2022-12-28T01:47:42.160Z,81.05
2022-12-28T01:47:52.222Z,81.05
2022-12-28T01:48:02.304Z,81.05
2022-12-28T01:48:12.370Z,81.05
2022-12-28T01:48:22.462Z,81.05
2022-12-28T01:48:32.541Z,81.05
2022-12-28T01:48:42.591Z,81.05
2022-12-28T01:48:52.658Z,80.94
2022-12-28T01:49:02.709Z,80.94
2022-12-28T01:49:12.801Z,80.94
2022-12-28T01:49:22.855Z,81.05
2022-12-28T01:49:32.960Z,80.94
2022-12-28T01:49:43.018Z,81.05
2022-12-28T01:49:53.079Z,81.05
2022-12-28T01:50:03.142Z,81.05
2022-12-28T01:50:13.231Z,80.94
2022-12-28T01:50:23.299Z,80.94
2022-12-28T01:50:33.338Z,80.94
2022-12-28T01:50:43.389Z,80.94
2022-12-28T01:50:53.459Z,80.94
2022-12-28T01:51:03.570Z,80.94
2022-12-28T01:51:13.651Z,80.94
2022-12-28T01:51:23.709Z,80.84
2022-12-28T01:51:33.819Z,80.84
2022-12-28T01:51:43.891Z,80.84
2022-12-28T01:51:53.959Z,80.84
2022-12-28T01:52:04.026Z,80.84
2022-12-28T01:52:14.099Z,80.84
2022-12-28T01:52:24.102Z,80.84
2022-12-28T01:52:34.169Z,80.84
2022-12-28T01:52:44.272Z,80.84
2022-12-28T01:52:54.348Z,80.84
2022-12-28T01:53:04.431Z,80.84
2022-12-28T01:53:14.489Z,80.84
2022-12-28T01:53:24.583Z,80.74
2022-12-28T01:53:34.670Z,80.74
2022-12-28T01:53:44.740Z,80.74
2022-12-28T01:53:54.813Z,80.74
2022-12-28T01:54:04.909Z,80.74
2022-12-28T01:54:14.988Z,80.74
2022-12-28T01:54:25.069Z,80.74
2022-12-28T01:54:35.142Z,80.63
2022-12-28T01:54:45.212Z,80.63
2022-12-28T01:54:55.282Z,80.74
2022-12-28T01:55:05.348Z,80.74
2022-12-28T01:55:15.442Z,80.74
2022-12-28T01:55:25.495Z,80.74
2022-12-28T01:55:35.595Z,80.74
2022-12-28T01:55:45.640Z,80.74
2022-12-28T01:55:55.718Z,80.74
2022-12-28T01:56:05.788Z,80.74
2022-12-28T01:56:15.862Z,80.74
2022-12-28T01:56:25.919Z,80.74
2022-12-28T01:56:35.990Z,80.74
2022-12-28T01:56:46.081Z,80.74
2022-12-28T01:56:56.141Z,80.74
2022-12-28T01:57:06.224Z,80.74
2022-12-28T01:57:16.279Z,80.74
2022-12-28T01:57:26.352Z,80.74
2022-12-28T01:57:36.426Z,80.74
2022-12-28T01:57:46.504Z,80.74
2022-12-28T01:57:56.562Z,80.74
2022-12-28T01:58:06.624Z,80.74
2022-12-28T01:58:16.689Z,80.74
2022-12-28T01:58:26.758Z,80.63
2022-12-28T01:58:36.855Z,80.63
2022-12-28T01:58:46.917Z,80.63
2022-12-28T01:58:56.984Z,80.63
2022-12-28T01:59:07.073Z,80.63
2022-12-28T01:59:17.157Z,80.53
2022-12-28T01:59:27.227Z,80.63
2022-12-28T01:59:37.318Z,80.63
2022-12-28T01:59:47.388Z,80.63
2022-12-28T01:59:57.452Z,80.63
2022-12-28T02:00:07.536Z,80.63
2022-12-28T02:00:17.610Z,80.63
2022-12-28T02:00:27.662Z,80.63
2022-12-28T02:00:37.761Z,80.63
2022-12-28T02:00:47.861Z,80.63
2022-12-28T02:00:57.976Z,80.63
2022-12-28T02:01:08.159Z,80.74
2022-12-28T02:01:18.285Z,80.74
2022-12-28T02:01:28.326Z,80.74
2022-12-28T02:01:38.519Z,80.74
2022-12-28T02:01:48.506Z,80.74
2022-12-28T02:01:58.699Z,80.74
2022-12-28T02:02:08.965Z,80.74
2022-12-28T02:02:19.085Z,80.74
2022-12-28T02:02:29.105Z,80.74
2022-12-28T02:02:39.112Z,80.74
2022-12-28T02:02:49.177Z,80.74
2022-12-28T02:02:59.153Z,80.74
2022-12-28T02:03:09.282Z,80.74
2022-12-28T02:03:19.238Z,80.74
2022-12-28T02:03:29.251Z,80.74
2022-12-28T02:03:39.257Z,80.63
2022-12-28T02:03:49.277Z,80.63
2022-12-28T02:03:59.320Z,80.63
2022-12-28T02:04:09.360Z,80.63
2022-12-28T02:04:19.437Z,80.63
2022-12-28T02:04:29.461Z,80.63
2022-12-28T02:04:39.489Z,80.63
2022-12-28T02:04:49.518Z,80.63
2022-12-28T02:04:59.635Z,80.63
2022-12-28T02:05:09.658Z,80.63
2022-12-28T02:05:19.715Z,80.53
2022-12-28T02:05:29.790Z,80.53
2022-12-28T02:05:39.874Z,80.53
2022-12-28T02:05:49.932Z,80.63
2022-12-28T02:05:59.998Z,80.63
2022-12-28T02:06:10.064Z,80.53
2022-12-28T02:06:20.136Z,80.53
2022-12-28T02:06:30.241Z,80.43
2022-12-28T02:06:40.309Z,80.43
2022-12-28T02:06:50.388Z,80.43
2022-12-28T02:07:00.458Z,80.43
2022-12-28T02:07:10.571Z,80.43
2022-12-28T02:07:20.666Z,80.43
2022-12-28T02:07:30.706Z,80.43
2022-12-28T02:07:40.779Z,80.46
2022-12-28T02:07:50.884Z,80.43
2022-12-28T02:08:00.951Z,80.57
2022-12-28T02:08:11.029Z,80.53
2022-12-28T02:08:21.120Z,80.57
2022-12-28T02:08:31.199Z,80.53
2022-12-28T02:08:41.333Z,80.57
2022-12-28T02:08:51.400Z,80.67
2022-12-28T02:09:01.482Z,80.63
2022-12-28T02:09:11.560Z,80.67
2022-12-28T02:09:21.637Z,80.67
2022-12-28T02:09:31.716Z,80.67
2022-12-28T02:09:41.792Z,80.67
2022-12-28T02:10:40.576Z,80.77